createdAt,value
2018-08-27T00:00:04.620Z,17.09
2018-08-27T00:02:32.912Z,16.99
2018-08-27T00:05:01.195Z,17.12
2018-08-27T00:07:29.471Z,17.15
2018-08-27T00:09:57.747Z,16.78
2018-08-27T00:12:26.031Z,17.11
2018-08-27T00:14:54.299Z,17.55
2018-08-27T00:17:22.570Z,16.75
2018-08-27T00:19:50.843Z,16.65
2018-08-27T00:22:19.103Z,16.79
2018-08-27T00:24:47.400Z,17.24
2018-08-27T00:27:15.660Z,17.05
2018-08-27T00:29:43.958Z,16.63
2018-08-27T00:32:12.261Z,16.55
2018-08-27T00:34:40.520Z,16.87
2018-08-27T00:37:08.791Z,16.97
2018-08-27T00:39:37.044Z,16.93
2018-08-27T00:42:05.300Z,16.50
2018-08-27T00:44:33.551Z,16.25
2018-08-27T00:47:01.862Z,16.05
2018-08-27T00:49:30.251Z,16.35
2018-08-27T00:51:58.872Z,16.24
2018-08-27T00:54:27.298Z,15.70
2018-08-27T00:56:55.603Z,16.33
2018-08-27T00:59:23.914Z,16.22
2018-08-27T01:01:52.404Z,15.93
2018-08-27T01:04:20.883Z,15.37
2018-08-27T01:09:22.472Z,15.93
2018-08-27T01:11:51.048Z,15.90
2018-08-27T01:14:19.551Z,16.06
2018-08-27T01:16:47.977Z,16.08
2018-08-27T01:19:16.383Z,16.42
2018-08-27T01:21:46.024Z,16.40
2018-08-27T01:24:15.772Z,16.41
2018-08-27T01:26:44.647Z,16.50
2018-08-27T01:29:13.376Z,15.67
2018-08-27T01:31:41.811Z,16.51
2018-08-27T01:34:10.287Z,16.37
2018-08-27T01:36:38.728Z,15.54
2018-08-27T01:39:07.831Z,15.95
2018-08-27T01:41:37.267Z,16.41
2018-08-27T01:44:05.839Z,15.74
2018-08-27T01:46:34.262Z,15.63
2018-08-27T01:49:02.740Z,15.90
2018-08-27T01:51:31.083Z,15.67
2018-08-27T01:53:59.427Z,15.45
2018-08-27T01:56:27.920Z,16.09
2018-08-27T01:58:56.376Z,16.05
2018-08-27T02:01:24.877Z,16.01
2018-08-27T02:03:53.392Z,15.98
2018-08-27T02:06:21.830Z,15.73
2018-08-27T02:08:50.199Z,16.00
2018-08-27T02:11:18.882Z,15.80
2018-08-27T02:13:47.343Z,15.80
2018-08-27T02:16:15.779Z,15.56
2018-08-27T02:18:44.246Z,15.82
2018-08-27T02:21:12.660Z,15.68
2018-08-27T02:23:41.204Z,15.52
2018-08-27T02:26:09.718Z,15.71
2018-08-27T02:28:38.118Z,15.61
2018-08-27T02:31:06.466Z,15.32
2018-08-27T02:33:34.843Z,15.49
2018-08-27T02:36:03.492Z,15.12
2018-08-27T02:38:32.195Z,14.92
2018-08-27T02:41:00.673Z,14.89
2018-08-27T02:43:29.083Z,15.02
2018-08-27T02:45:57.445Z,15.30
2018-08-27T02:48:25.824Z,15.05
2018-08-27T02:50:54.311Z,15.30
2018-08-27T02:53:22.763Z,15.41
2018-08-27T02:55:51.177Z,15.18
2018-08-27T02:58:19.551Z,15.26
2018-08-27T03:00:47.962Z,15.58
2018-08-27T03:03:16.640Z,15.50
2018-08-27T03:05:45.074Z,15.49
2018-08-27T03:08:13.513Z,15.61
2018-08-27T03:10:41.873Z,15.39
2018-08-27T03:13:10.246Z,15.51
2018-08-27T03:15:38.619Z,15.54
2018-08-27T03:18:07.147Z,15.41
2018-08-27T03:20:35.867Z,15.57
2018-08-27T03:23:04.291Z,15.68
2018-08-27T03:25:32.976Z,15.68
2018-08-27T03:28:01.347Z,15.56
2018-08-27T03:30:32.598Z,15.53
2018-08-27T03:33:01.035Z,15.42
2018-08-27T03:35:29.381Z,15.35
2018-08-27T03:37:57.763Z,15.50
2018-08-27T03:40:26.159Z,15.64
2018-08-27T03:42:54.592Z,15.47
2018-08-27T03:45:23.016Z,15.64
2018-08-27T03:47:51.431Z,15.20
2018-08-27T03:50:19.824Z,15.10
2018-08-27T03:52:48.208Z,14.94
2018-08-27T03:55:16.755Z,15.21
2018-08-27T03:57:45.159Z,15.13
2018-08-27T04:00:13.533Z,15.21
2018-08-27T04:02:42.005Z,15.20
2018-08-27T04:05:10.413Z,14.96
2018-08-27T04:07:38.876Z,15.17
2018-08-27T04:10:07.373Z,14.83
2018-08-27T04:12:35.671Z,14.99
2018-08-27T04:15:04.111Z,14.72
2018-08-27T04:17:33.913Z,14.48
2018-08-27T04:20:03.435Z,14.62
2018-08-27T04:22:31.945Z,14.68
2018-08-27T04:25:00.460Z,14.54
2018-08-27T04:27:28.920Z,14.40
2018-08-27T04:29:57.380Z,14.37
2018-08-27T04:32:25.766Z,14.26
2018-08-27T04:34:54.297Z,14.57
2018-08-27T04:37:22.964Z,14.39
2018-08-27T04:39:51.584Z,14.12
2018-08-27T04:42:20.191Z,14.53
2018-08-27T04:44:48.560Z,14.68
2018-08-27T04:47:16.916Z,14.17
2018-08-27T04:49:45.272Z,14.58
2018-08-27T04:52:14.035Z,14.43
2018-08-27T04:54:42.751Z,14.40
2018-08-27T04:57:11.287Z,14.66
2018-08-27T04:59:43.421Z,14.49
2018-08-27T05:02:11.944Z,14.11
2018-08-27T05:04:40.396Z,14.46
2018-08-27T05:07:08.795Z,14.88
2018-08-27T05:09:37.232Z,14.68
2018-08-27T05:12:05.601Z,14.69
2018-08-27T05:14:33.893Z,14.91
2018-08-27T05:17:03.592Z,14.62
2018-08-27T05:19:31.891Z,14.44
2018-08-27T05:22:01.036Z,14.28
2018-08-27T05:24:29.582Z,14.38
2018-08-27T05:26:57.925Z,14.29
2018-08-27T05:29:26.346Z,14.56
2018-08-27T05:31:54.780Z,14.38
2018-08-27T05:34:25.323Z,14.61
2018-08-27T05:36:53.637Z,14.45
2018-08-27T05:39:22.008Z,14.83
2018-08-27T05:41:50.382Z,14.76
2018-08-27T05:44:18.829Z,14.85
2018-08-27T05:46:47.546Z,14.64
2018-08-27T05:49:15.827Z,14.67
2018-08-27T05:51:44.182Z,14.76
2018-08-27T05:54:12.551Z,14.97
2018-08-27T05:56:40.995Z,14.85
2018-08-27T05:59:09.439Z,14.79
2018-08-27T06:01:37.855Z,14.37
2018-08-27T06:04:06.292Z,14.62
2018-08-27T06:06:34.644Z,14.62
2018-08-27T06:09:03.013Z,14.91
2018-08-27T06:11:31.374Z,14.65
2018-08-27T06:13:59.762Z,15.09
2018-08-27T06:16:28.077Z,14.66
2018-08-27T06:18:56.437Z,15.18
2018-08-27T06:21:24.800Z,14.81
2018-08-27T06:23:53.183Z,15.08
2018-08-27T06:26:21.544Z,14.90
2018-08-27T06:28:49.909Z,15.12
2018-08-27T06:31:18.287Z,15.05
2018-08-27T06:33:46.695Z,15.29
2018-08-27T06:36:15.139Z,15.26
2018-08-27T06:38:43.543Z,15.51
2018-08-27T06:41:11.918Z,15.93
2018-08-27T06:43:40.307Z,15.60
2018-08-27T06:46:09.294Z,15.49
2018-08-27T06:48:37.645Z,15.46
2018-08-27T06:51:06.058Z,15.64
2018-08-27T06:53:34.503Z,15.79
2018-08-27T06:56:02.892Z,16.16
2018-08-27T06:58:31.291Z,16.47
2018-08-27T07:00:59.692Z,16.68
2018-08-27T07:03:28.174Z,16.41
2018-08-27T07:05:56.650Z,16.63
2018-08-27T07:08:25.044Z,16.47
2018-08-27T07:10:53.547Z,16.19
2018-08-27T07:13:21.995Z,16.07
2018-08-27T07:15:50.441Z,16.06
2018-08-27T07:18:18.839Z,16.22
2018-08-27T07:20:47.299Z,16.27
2018-08-27T07:23:15.699Z,16.35
2018-08-27T07:25:44.120Z,16.69
2018-08-27T07:28:12.566Z,16.72
2018-08-27T07:30:40.991Z,17.17
2018-08-27T07:33:09.371Z,16.73
2018-08-27T07:35:37.844Z,17.28
2018-08-27T07:38:06.367Z,16.31
2018-08-27T07:40:34.664Z,16.30
2018-08-27T07:43:03.080Z,16.73
2018-08-27T07:45:31.504Z,16.59
2018-08-27T07:47:59.895Z,16.53
2018-08-27T07:50:28.316Z,16.57
2018-08-27T07:52:56.847Z,16.72
2018-08-27T07:55:25.417Z,16.96
2018-08-27T07:57:53.852Z,16.86
2018-08-27T08:00:23.371Z,16.38
2018-08-27T08:02:53.053Z,16.53
2018-08-27T08:05:21.505Z,17.30
2018-08-27T08:07:50.140Z,17.51
2018-08-27T08:10:18.762Z,17.87
2018-08-27T08:12:48.139Z,18.20
2018-08-27T08:15:16.727Z,17.73
2018-08-27T08:17:45.142Z,17.86
2018-08-27T08:20:13.623Z,17.63
2018-08-27T08:22:42.201Z,16.98
2018-08-27T08:25:10.519Z,17.08
2018-08-27T08:27:39.088Z,17.42
2018-08-27T08:30:07.639Z,17.75
2018-08-27T08:32:36.055Z,17.78
2018-08-27T08:35:04.701Z,18.15
2018-08-27T08:37:33.075Z,18.28
2018-08-27T08:40:01.914Z,18.25
2018-08-27T08:42:30.104Z,18.43
2018-08-27T08:44:58.520Z,18.77
2018-08-27T08:47:26.933Z,19.19
2018-08-27T08:49:55.308Z,18.87
2018-08-27T08:52:23.903Z,18.81
2018-08-27T08:54:52.307Z,18.55
2018-08-27T08:57:20.708Z,19.11
2018-08-27T08:59:49.099Z,19.09
2018-08-27T09:02:17.471Z,18.77
2018-08-27T09:04:45.954Z,18.63
2018-08-27T09:07:14.319Z,18.91
2018-08-27T09:09:42.903Z,18.66
2018-08-27T09:12:11.199Z,18.78
2018-08-27T09:14:39.558Z,18.75
2018-08-27T09:17:07.987Z,18.72
2018-08-27T09:19:36.324Z,18.03
2018-08-27T09:22:04.695Z,18.34
2018-08-27T09:24:33.109Z,18.29
2018-08-27T09:27:01.459Z,18.05
2018-08-27T09:29:30.040Z,18.07
2018-08-27T09:31:58.355Z,18.35
2018-08-27T09:34:26.835Z,17.99
2018-08-27T09:36:55.240Z,18.64
2018-08-27T09:39:23.526Z,18.58
2018-08-27T09:41:52.002Z,18.00
2018-08-27T09:44:20.421Z,18.14
2018-08-27T09:46:48.941Z,18.38
2018-08-27T09:49:17.274Z,18.60
2018-08-27T09:51:45.622Z,18.45
2018-08-27T09:54:14.127Z,18.45
2018-08-27T09:56:42.649Z,18.34
2018-08-27T09:59:11.229Z,18.53
2018-08-27T10:01:43.698Z,18.84
2018-08-27T10:04:12.125Z,18.68
2018-08-27T10:06:40.496Z,19.03
2018-08-27T10:09:08.937Z,18.76
2018-08-27T10:11:37.364Z,18.56
2018-08-27T10:14:05.806Z,18.22
2018-08-27T10:16:34.361Z,18.27
2018-08-27T10:19:02.679Z,18.33
2018-08-27T10:21:31.082Z,18.39
2018-08-27T10:23:59.608Z,18.28
2018-08-27T10:26:28.085Z,18.25
2018-08-27T10:28:56.467Z,18.48
2018-08-27T10:31:24.874Z,18.59
2018-08-27T10:33:53.275Z,18.21
2018-08-27T10:36:22.635Z,18.34
2018-08-27T10:38:50.967Z,18.49
2018-08-27T10:41:19.267Z,18.55
2018-08-27T10:43:47.550Z,18.56
2018-08-27T10:46:15.876Z,19.19
2018-08-27T10:48:44.365Z,19.08
2018-08-27T10:51:12.752Z,20.63
2018-08-27T10:53:41.182Z,20.65
2018-08-27T10:56:09.623Z,20.76
2018-08-27T10:58:38.036Z,20.73
2018-08-27T11:01:06.463Z,20.62
2018-08-27T11:03:34.855Z,20.26
2018-08-27T11:06:03.211Z,20.64
2018-08-27T11:08:31.573Z,21.29
2018-08-27T11:10:59.974Z,20.96
2018-08-27T11:13:28.410Z,20.97
2018-08-27T11:15:57.695Z,20.53
2018-08-27T11:18:25.979Z,20.59
2018-08-27T11:20:54.272Z,20.48
2018-08-27T11:23:22.585Z,20.30
2018-08-27T11:25:52.792Z,20.86
2018-08-27T11:28:21.454Z,20.34
2018-08-27T11:30:49.916Z,19.72
2018-08-27T11:33:18.455Z,19.25
2018-08-27T11:35:46.959Z,19.87
2018-08-27T11:38:15.492Z,19.58
2018-08-27T11:40:43.847Z,19.70
2018-08-27T11:43:12.344Z,19.99
2018-08-27T11:45:40.804Z,19.34
2018-08-27T11:48:10.273Z,19.34
2018-08-27T11:50:38.784Z,20.03
2018-08-27T11:53:07.060Z,19.75
2018-08-27T11:55:35.383Z,19.53
2018-08-27T11:58:03.727Z,19.63
2018-08-27T12:00:37.392Z,19.51
2018-08-27T12:03:05.666Z,20.11
2018-08-27T12:05:33.988Z,19.63
2018-08-27T12:08:02.316Z,19.49
2018-08-27T12:10:30.755Z,20.09
2018-08-27T12:12:59.188Z,20.50
2018-08-27T12:15:27.549Z,20.85
2018-08-27T12:17:55.897Z,20.99
2018-08-27T12:20:24.309Z,20.66
2018-08-27T12:22:52.676Z,21.25
2018-08-27T12:25:21.029Z,21.91
2018-08-27T12:27:49.483Z,22.02
2018-08-27T12:30:17.859Z,21.94
2018-08-27T12:32:46.256Z,21.15
2018-08-27T12:35:14.679Z,20.77
2018-08-27T12:37:43.183Z,20.56
2018-08-27T12:40:11.564Z,21.27
2018-08-27T12:42:40.122Z,21.18
2018-08-27T12:45:08.547Z,22.14
2018-08-27T12:47:36.926Z,21.90
2018-08-27T12:50:05.347Z,22.08
2018-08-27T12:52:33.925Z,21.82
2018-08-27T12:55:02.296Z,22.24
2018-08-27T12:57:30.783Z,22.28
2018-08-27T12:59:59.192Z,22.03
2018-08-27T13:02:27.645Z,21.88
2018-08-27T13:04:57.065Z,21.99
2018-08-27T13:07:25.517Z,22.33
2018-08-27T13:09:53.964Z,21.76
2018-08-27T13:12:22.420Z,21.72
2018-08-27T13:14:50.853Z,22.04
2018-08-27T13:17:19.344Z,22.33
2018-08-27T13:19:47.906Z,22.27
2018-08-27T13:22:17.339Z,21.79
2018-08-27T13:24:45.773Z,21.79
2018-08-27T13:27:14.214Z,21.92
2018-08-27T13:29:42.616Z,22.06
2018-08-27T13:32:11.432Z,22.38
2018-08-27T13:34:39.854Z,22.15
2018-08-27T13:37:08.555Z,21.63
2018-08-27T13:39:37.122Z,21.97
2018-08-27T13:42:05.492Z,21.86
2018-08-27T13:44:33.956Z,21.66
2018-08-27T13:47:02.346Z,21.73
2018-08-27T13:49:30.763Z,22.21
2018-08-27T13:52:01.915Z,21.96
2018-08-27T13:54:31.060Z,22.05
2018-08-27T13:56:59.703Z,21.59
2018-08-27T13:59:28.130Z,21.90
2018-08-27T14:01:57.946Z,22.35
2018-08-27T14:04:27.071Z,22.24
2018-08-27T14:06:55.479Z,22.47
2018-08-27T14:09:23.882Z,22.09
2018-08-27T14:11:52.383Z,22.09
2018-08-27T14:14:20.873Z,21.96
2018-08-27T14:16:49.328Z,22.33
2018-08-27T14:19:17.821Z,22.36
2018-08-27T14:21:46.194Z,22.17
2018-08-27T14:24:14.599Z,22.61
2018-08-27T14:26:43.259Z,22.92
2018-08-27T14:29:11.699Z,22.22
2018-08-27T14:31:42.038Z,22.59
2018-08-27T14:34:10.945Z,22.78
2018-08-27T14:36:39.393Z,22.91
2018-08-27T14:39:09.647Z,22.39
2018-08-27T14:41:39.182Z,21.85
2018-08-27T14:44:07.621Z,22.14
2018-08-27T14:46:36.270Z,22.07
2018-08-27T14:49:04.854Z,21.91
2018-08-27T14:51:33.317Z,22.14
2018-08-27T14:54:01.797Z,22.25
2018-08-27T14:56:30.639Z,22.19
2018-08-27T14:59:00.147Z,21.85
2018-08-27T15:01:28.725Z,21.80
2018-08-27T15:03:58.098Z,22.20
2018-08-27T15:06:26.473Z,22.30
2018-08-27T15:08:54.821Z,22.06
2018-08-27T15:11:23.172Z,22.36
2018-08-27T15:13:51.559Z,22.25
2018-08-27T15:16:19.988Z,22.05
2018-08-27T15:18:48.504Z,22.59
2018-08-27T15:21:16.988Z,22.19
2018-08-27T15:23:45.473Z,22.12
2018-08-27T15:26:13.959Z,22.19
2018-08-27T15:28:42.465Z,21.95
2018-08-27T15:31:10.912Z,22.44
2018-08-27T15:33:39.252Z,22.87
2018-08-27T15:36:07.628Z,23.08
2018-08-27T15:38:37.067Z,22.70
2018-08-27T15:41:06.251Z,22.08
2018-08-27T15:43:34.640Z,22.02
2018-08-27T15:46:08.307Z,22.41
2018-08-27T15:48:36.589Z,22.25
2018-08-27T15:51:04.966Z,22.74
2018-08-27T15:53:33.207Z,22.63
2018-08-27T15:56:02.560Z,23.12
2018-08-27T15:58:30.867Z,22.24
2018-08-27T16:01:00.047Z,22.61
2018-08-27T16:03:28.363Z,22.63
2018-08-27T16:05:56.769Z,22.40
2018-08-27T16:08:27.106Z,21.83
2018-08-27T16:10:55.429Z,22.33
2018-08-27T16:13:24.186Z,22.25
2018-08-27T16:15:52.496Z,22.14
2018-08-27T16:18:21.973Z,22.88
2018-08-27T16:20:50.322Z,22.79
2018-08-27T16:23:18.726Z,22.53
2018-08-27T16:25:46.987Z,22.48
2018-08-27T16:28:15.425Z,23.05
2018-08-27T16:30:43.699Z,22.97
2018-08-27T16:33:12.033Z,23.02
2018-08-27T16:35:40.307Z,22.72
2018-08-27T16:38:08.883Z,22.82
2018-08-27T16:40:37.167Z,23.01
2018-08-27T16:43:05.477Z,22.51
2018-08-27T16:45:34.767Z,22.51
2018-08-27T16:48:03.047Z,22.85
2018-08-27T16:50:31.336Z,22.68
2018-08-27T16:52:59.638Z,22.70
2018-08-27T16:55:27.919Z,22.80
2018-08-27T16:57:56.210Z,22.54
2018-08-27T17:00:24.549Z,22.81
2018-08-27T17:02:52.867Z,22.57
2018-08-27T17:05:21.235Z,22.48
2018-08-27T17:07:49.587Z,22.55
2018-08-27T17:10:17.969Z,22.57
2018-08-27T17:12:47.287Z,22.45
2018-08-27T17:15:15.603Z,22.36
2018-08-27T17:17:43.932Z,22.48
2018-08-27T17:20:12.260Z,22.19
2018-08-27T17:22:40.652Z,22.19
2018-08-27T17:25:08.958Z,22.12
2018-08-27T17:27:37.359Z,22.05
2018-08-27T17:30:05.995Z,22.27
2018-08-27T17:32:34.401Z,21.54
2018-08-27T17:35:08.956Z,21.90
2018-08-27T17:37:37.283Z,22.16
2018-08-27T17:40:05.807Z,21.92
2018-08-27T17:42:34.162Z,21.45
2018-08-27T17:45:02.609Z,21.33
2018-08-27T17:47:31.896Z,21.25
2018-08-27T17:50:00.187Z,21.70
2018-08-27T17:52:28.504Z,21.40
2018-08-27T17:54:56.806Z,21.74
2018-08-27T17:57:25.084Z,21.62
2018-08-27T17:59:54.432Z,21.88
2018-08-27T18:02:22.706Z,21.31
2018-08-27T18:04:51.086Z,21.51
2018-08-27T18:07:19.302Z,21.43
2018-08-27T18:09:47.608Z,21.49
2018-08-27T18:12:16.035Z,21.43
2018-08-27T18:14:44.443Z,20.80
2018-08-27T18:17:12.763Z,20.82
2018-08-27T18:19:41.187Z,21.03
2018-08-27T18:22:09.438Z,21.26
2018-08-27T18:24:37.807Z,20.93
2018-08-27T18:27:06.112Z,20.83
2018-08-27T18:29:34.493Z,20.38
2018-08-27T18:32:03.927Z,20.77
2018-08-27T18:34:32.294Z,21.05
2018-08-27T18:37:00.635Z,21.22
2018-08-27T18:39:28.920Z,20.79
2018-08-27T18:41:57.460Z,21.08
2018-08-27T18:44:25.766Z,20.97
2018-08-27T18:46:54.043Z,21.07
2018-08-27T18:49:22.342Z,20.67
2018-08-27T18:51:50.645Z,20.39
2018-08-27T18:54:18.915Z,20.51
2018-08-27T18:56:47.192Z,20.92
2018-08-27T18:59:15.499Z,20.92
2018-08-27T19:01:44.615Z,20.43
2018-08-27T19:04:13.115Z,20.49
2018-08-27T19:06:41.554Z,20.47
2018-08-27T19:09:10.310Z,20.59
2018-08-27T19:11:38.604Z,20.70
2018-08-27T19:14:08.227Z,20.22
2018-08-27T19:16:37.053Z,20.47
2018-08-27T19:19:05.435Z,20.41
2018-08-27T19:21:33.787Z,20.35
2018-08-27T19:24:02.161Z,20.22
2018-08-27T19:26:30.440Z,20.29
2018-08-27T19:29:01.292Z,20.42
2018-08-27T19:31:29.546Z,20.66
2018-08-27T19:33:57.872Z,20.43
2018-08-27T19:36:26.338Z,19.99
2018-08-27T19:38:54.447Z,19.84
2018-08-27T19:41:22.848Z,20.39
2018-08-27T19:43:53.189Z,20.53
2018-08-27T19:46:21.519Z,19.88
2018-08-27T19:48:49.909Z,20.05
2018-08-27T19:51:18.183Z,20.06
2018-08-27T19:53:46.491Z,19.93
2018-08-27T19:56:14.941Z,19.84
2018-08-27T19:58:43.246Z,20.15
2018-08-27T20:01:11.567Z,20.55
2018-08-27T20:03:39.927Z,20.63
2018-08-27T20:06:08.249Z,20.60
2018-08-27T20:08:58.479Z,20.02
2018-08-27T20:11:26.784Z,20.14
2018-08-27T20:13:55.089Z,20.29
2018-08-27T20:16:23.412Z,19.65
2018-08-27T20:18:51.646Z,20.04
2018-08-27T20:21:19.939Z,19.83
2018-08-27T20:23:48.344Z,20.10
2018-08-27T20:26:16.678Z,19.92
2018-08-27T20:28:44.918Z,19.99
2018-08-27T20:31:13.200Z,19.80
2018-08-27T20:33:44.375Z,19.71
2018-08-27T20:36:12.719Z,19.66
2018-08-27T20:38:41.037Z,19.46
2018-08-27T20:41:09.394Z,19.51
2018-08-27T20:43:38.680Z,19.65
2018-08-27T20:46:07.120Z,19.65
2018-08-27T20:48:35.536Z,19.68
2018-08-27T20:51:03.940Z,19.75
2018-08-27T20:56:21.739Z,19.31
2018-08-27T20:58:50.192Z,18.86
2018-08-27T21:01:18.532Z,19.47
2018-08-27T21:03:46.831Z,18.97
2018-08-27T21:06:15.483Z,19.12
2018-08-27T21:08:43.930Z,19.16
2018-08-27T21:11:12.405Z,18.93
2018-08-27T21:13:40.941Z,18.71
2018-08-27T21:16:09.286Z,18.83
2018-08-27T21:18:37.699Z,18.46
2018-08-27T21:21:06.311Z,18.67
2018-08-27T21:23:34.926Z,18.22
2018-08-27T21:26:04.269Z,18.76
2018-08-27T21:28:32.638Z,18.37
2018-08-27T21:31:00.918Z,18.10
2018-08-27T21:33:29.183Z,17.92
2018-08-27T21:35:57.458Z,18.25
2018-08-27T21:38:25.729Z,18.32
2018-08-27T21:40:53.984Z,18.62
2018-08-27T21:43:22.266Z,18.60
2018-08-27T21:45:50.549Z,18.68
2018-08-27T21:48:18.866Z,18.22
2018-08-27T21:50:47.134Z,18.21
2018-08-27T21:53:15.409Z,18.11
2018-08-27T21:55:43.684Z,18.38
2018-08-27T21:58:11.948Z,18.52
2018-08-27T22:00:45.455Z,18.16
2018-08-27T22:03:18.983Z,18.46
2018-08-27T22:05:47.312Z,18.58
2018-08-27T22:08:15.611Z,18.65
2018-08-27T22:10:43.951Z,18.53
2018-08-27T22:13:12.249Z,18.53
2018-08-27T22:15:40.622Z,18.66
2018-08-27T22:18:08.902Z,18.58
2018-08-27T22:20:37.229Z,18.41
2018-08-27T22:23:05.735Z,18.27
2018-08-27T22:25:34.089Z,18.35
2018-08-27T22:28:02.350Z,17.95
2018-08-27T22:30:31.740Z,17.86
2018-08-27T22:33:00.057Z,17.60
2018-08-27T22:35:28.372Z,17.36
2018-08-27T22:37:56.671Z,17.96
2018-08-27T22:40:25.020Z,17.69
2018-08-27T22:42:54.504Z,17.13
2018-08-27T22:45:22.847Z,17.68
2018-08-27T22:47:51.167Z,18.02
2018-08-27T22:50:19.483Z,17.86
2018-08-27T22:52:47.771Z,17.85
2018-08-27T22:55:16.105Z,18.08
2018-08-27T22:57:44.388Z,18.46
2018-08-27T23:00:12.728Z,18.42
2018-08-27T23:02:46.331Z,18.37
2018-08-27T23:05:14.593Z,18.15
2018-08-27T23:07:42.903Z,18.05
2018-08-27T23:10:11.323Z,17.95
2018-08-27T23:12:39.682Z,17.83
2018-08-27T23:15:08.045Z,18.13
2018-08-27T23:17:37.471Z,17.49
2018-08-27T23:20:05.955Z,17.15
2018-08-27T23:22:34.329Z,17.55
2018-08-27T23:25:02.777Z,17.44
2018-08-27T23:27:31.224Z,17.51
2018-08-27T23:29:59.627Z,17.25
2018-08-27T23:32:28.044Z,17.57
2018-08-27T23:35:07.943Z,17.17
2018-08-27T23:37:39.153Z,17.62
2018-08-27T23:40:07.553Z,17.29
2018-08-27T23:42:35.891Z,17.08
2018-08-27T23:45:04.349Z,17.04
2018-08-27T23:47:32.704Z,17.20
2018-08-27T23:50:01.064Z,17.31
2018-08-27T23:52:29.480Z,16.95
2018-08-27T23:54:57.801Z,17.19
2018-08-27T23:57:26.225Z,17.04
2018-08-27T23:59:54.520Z,16.93
